Carthage, Mississippi
Current Conditions -  °F | °C
As of 7:54 AM on Wednesday 22 Oct 2014 (Local Time) from KJAN Reporting Station
Clear Clear  
Wind Chill: 54°   Ceiling: Unl
Heat Index: 54°   Visibility: 10mi
Dew Point: 50°   Wind: 5mph
Humidity: 86%   Direction: 40°NE
Pressure: 30.14"   Gusts: NA
Location:  32.73°N, 89.54°W
Report Text: KJAN 221254Z 04004KT 10SM CLR 12/10 A3014 RMK AO2 SLP203 T01220100
Loading
Personal Weather Stations






























Interactive Weather Map
Tropical Storm Tracking
New forecast layout! Learn more

10-Day Weather Forecast

Advertisements
Track Severe Weather on mobile